createdAt,value
2023-11-11T00:00:13.067Z,11.71
2023-11-11T00:02:41.651Z,13.14
2023-11-11T00:05:10.196Z,14.01
2023-11-11T00:07:38.195Z,14.42
2023-11-11T00:10:06.821Z,14.69
2023-11-11T00:12:36.246Z,15.15
2023-11-11T00:15:06.136Z,15.28
2023-11-11T00:17:35.562Z,15.46
2023-11-11T00:20:03.724Z,15.41
2023-11-11T00:22:31.630Z,15.40
2023-11-11T00:24:59.552Z,15.58
2023-11-11T00:27:28.866Z,15.93
2023-11-11T00:29:57.395Z,15.96
2023-11-11T00:32:25.779Z,15.91
2023-11-11T00:34:55.074Z,16.17
2023-11-11T00:37:24.978Z,16.24
2023-11-11T00:39:52.973Z,16.14
2023-11-11T00:42:23.091Z,14.81
2023-11-11T00:44:51.008Z,13.07
2023-11-11T00:47:19.299Z,11.81
2023-11-11T00:49:50.609Z,11.30
2023-11-11T00:52:21.064Z,10.87
2023-11-11T00:54:50.129Z,10.53
2023-11-11T00:57:20.256Z,10.51
2023-11-11T00:59:48.388Z,10.78
2023-11-11T01:02:16.305Z,10.88
2023-11-11T01:04:44.229Z,10.87
2023-11-11T01:07:12.953Z,11.00
2023-11-11T01:09:42.803Z,11.06
2023-11-11T01:12:11.948Z,10.96
2023-11-11T01:14:40.437Z,11.60
2023-11-11T01:17:09.304Z,12.15
2023-11-11T01:19:37.298Z,12.25
2023-11-11T01:22:05.543Z,12.15
2023-11-11T01:24:33.705Z,12.24
2023-11-11T01:27:03.049Z,11.92
2023-11-11T01:29:31.287Z,11.60
2023-11-11T01:31:59.657Z,11.72
2023-11-11T01:34:29.171Z,11.82
2023-11-11T01:36:58.667Z,11.86
2023-11-11T01:39:26.664Z,11.77
2023-11-11T01:41:56.542Z,11.57
2023-11-11T01:44:25.991Z,11.64
2023-11-11T01:46:54.149Z,11.24
2023-11-11T01:49:22.972Z,11.52
2023-11-11T01:51:52.981Z,11.34
2023-11-11T01:54:22.443Z,11.24
2023-11-11T01:56:51.705Z,11.14
2023-11-11T01:59:20.032Z,11.28
2023-11-11T02:01:50.758Z,11.40
2023-11-11T02:04:19.139Z,11.82
2023-11-11T02:06:50.351Z,11.99
2023-11-11T02:09:24.045Z,11.63
2023-11-11T02:11:53.811Z,11.97
2023-11-11T02:14:22.961Z,12.05
2023-11-11T02:16:52.656Z,12.15
2023-11-11T02:19:20.713Z,12.35
2023-11-11T02:21:49.916Z,12.37
2023-11-11T02:24:21.201Z,12.35
2023-11-11T02:26:51.418Z,12.35
2023-11-11T02:29:19.363Z,12.40
2023-11-11T02:31:47.318Z,12.25
2023-11-11T02:34:15.280Z,12.03
2023-11-11T02:36:53.913Z,12.11
2023-11-11T02:39:30.119Z,12.26
2023-11-11T02:41:58.187Z,12.29
2023-11-11T02:44:26.384Z,12.38
2023-11-11T02:46:54.359Z,12.43
2023-11-11T02:49:22.652Z,12.39
2023-11-11T02:51:50.627Z,12.27
2023-11-11T02:54:18.554Z,12.33
2023-11-11T02:56:47.870Z,12.36
2023-11-11T02:59:15.901Z,12.28
2023-11-11T03:01:43.869Z,12.19
2023-11-11T03:04:13.366Z,12.25
2023-11-11T03:06:43.634Z,11.57
2023-11-11T03:09:12.443Z,12.15
2023-11-11T03:11:40.713Z,12.21
2023-11-11T03:14:10.451Z,11.93
2023-11-11T03:16:39.609Z,11.63
2023-11-11T03:19:08.871Z,10.62
2023-11-11T03:21:37.496Z,11.07
2023-11-11T03:24:06.029Z,10.90
2023-11-11T03:26:34.639Z,10.79
2023-11-11T03:29:02.747Z,10.90
2023-11-11T03:31:32.088Z,10.88
2023-11-11T03:34:00.059Z,11.10
2023-11-11T03:36:28.402Z,11.09
2023-11-11T03:38:56.670Z,10.76
2023-11-11T03:41:24.538Z,10.51
2023-11-11T03:43:52.921Z,10.52
2023-11-11T03:46:20.897Z,10.48
2023-11-11T03:48:50.285Z,10.77
2023-11-11T03:51:18.369Z,10.84
2023-11-11T03:53:46.231Z,10.85
2023-11-11T03:56:14.981Z,10.70
2023-11-11T03:58:43.052Z,10.92
2023-11-11T04:01:12.154Z,11.22
2023-11-11T04:03:41.402Z,11.00
2023-11-11T04:06:11.494Z,10.52
2023-11-11T04:08:40.830Z,10.61
2023-11-11T04:11:09.692Z,10.64
2023-11-11T04:13:40.504Z,10.77
2023-11-11T04:16:09.625Z,10.68
2023-11-11T04:18:39.116Z,10.55
2023-11-11T04:21:07.459Z,10.51
2023-11-11T04:23:36.857Z,10.32
2023-11-11T04:26:05.281Z,10.27
2023-11-11T04:28:33.217Z,10.12
2023-11-11T04:31:01.162Z,9.80
2023-11-11T04:33:30.154Z,10.11
2023-11-11T04:35:58.243Z,10.09
2023-11-11T04:38:28.736Z,10.01
2023-11-11T04:40:58.665Z,10.41
2023-11-11T04:43:26.885Z,10.48
2023-11-11T04:45:54.924Z,10.65
2023-11-11T04:48:23.210Z,10.59
2023-11-11T04:50:51.832Z,10.49
2023-11-11T04:53:20.722Z,10.31
2023-11-11T04:55:49.596Z,10.35
2023-11-11T04:58:19.225Z,10.52
2023-11-11T05:00:47.359Z,10.67
2023-11-11T05:03:18.522Z,10.73
2023-11-11T05:05:46.598Z,10.80
2023-11-11T05:08:14.657Z,10.86
2023-11-11T05:10:42.593Z,10.82
2023-11-11T05:13:10.699Z,10.36
2023-11-11T05:15:44.661Z,9.87
2023-11-11T05:18:12.861Z,9.51
2023-11-11T05:20:41.509Z,9.27
2023-11-11T05:23:11.593Z,9.12
2023-11-11T05:25:40.010Z,9.02
2023-11-11T05:28:08.625Z,8.97
2023-11-11T05:30:36.897Z,9.00
2023-11-11T05:33:07.028Z,9.08
2023-11-11T05:35:35.303Z,9.08
2023-11-11T05:38:03.198Z,8.97
2023-11-11T05:40:31.334Z,9.11
2023-11-11T05:43:01.444Z,9.10
2023-11-11T05:45:29.768Z,9.05
2023-11-11T05:47:58.061Z,9.30
2023-11-11T05:50:27.429Z,9.56
2023-11-11T05:52:55.355Z,9.50
2023-11-11T05:55:25.143Z,9.48
2023-11-11T05:57:53.400Z,9.65
2023-11-11T06:00:21.932Z,9.56
2023-11-11T06:02:50.065Z,9.48
2023-11-11T06:05:18.073Z,9.54
2023-11-11T06:07:47.354Z,9.78
2023-11-11T06:10:19.311Z,10.01
2023-11-11T06:12:48.797Z,10.25
2023-11-11T06:15:18.566Z,10.38
2023-11-11T06:17:46.874Z,10.59
2023-11-11T06:20:15.215Z,10.60
2023-11-11T06:22:43.878Z,10.45
2023-11-11T06:25:13.274Z,10.56
2023-11-11T06:27:41.414Z,10.49
2023-11-11T06:30:11.364Z,10.25
2023-11-11T06:32:39.763Z,10.01
2023-11-11T06:35:10.338Z,9.88
2023-11-11T06:37:38.295Z,9.94
2023-11-11T06:40:08.254Z,10.12
2023-11-11T06:42:38.484Z,10.22
2023-11-11T06:45:07.620Z,10.66
2023-11-11T06:47:35.702Z,10.94
2023-11-11T06:50:03.825Z,10.66
2023-11-11T06:52:32.666Z,10.99
2023-11-11T06:55:00.607Z,11.08
2023-11-11T06:57:28.563Z,11.14
2023-11-11T06:59:58.036Z,11.17
2023-11-11T07:02:26.038Z,11.42
2023-11-11T07:04:55.902Z,11.48
2023-11-11T07:07:24.089Z,11.55
2023-11-11T07:09:54.220Z,11.43
2023-11-11T07:12:23.940Z,11.28
2023-11-11T07:14:52.117Z,10.94
2023-11-11T07:17:21.653Z,10.57
2023-11-11T07:19:49.588Z,10.84
2023-11-11T07:22:26.525Z,11.06
2023-11-11T07:24:55.649Z,11.17
2023-11-11T07:27:23.629Z,11.31
2023-11-11T07:29:53.088Z,11.55
2023-11-11T07:32:23.413Z,11.74
2023-11-11T07:34:51.467Z,11.86
2023-11-11T07:37:19.453Z,11.79
2023-11-11T07:39:47.597Z,11.83
2023-11-11T07:42:15.581Z,11.91
2023-11-11T07:44:43.609Z,12.11
2023-11-11T07:47:11.602Z,11.91
2023-11-11T07:49:42.325Z,11.78
2023-11-11T07:52:10.290Z,11.93
2023-11-11T07:54:38.603Z,12.52
2023-11-11T07:57:07.909Z,12.67
2023-11-11T07:59:37.128Z,12.81
2023-11-11T08:02:05.299Z,12.79
2023-11-11T08:04:33.274Z,12.86
2023-11-11T08:07:02.738Z,12.89
2023-11-11T08:09:32.719Z,12.96
2023-11-11T08:12:00.793Z,12.78
2023-11-11T08:14:29.725Z,12.66
2023-11-11T08:16:59.221Z,12.44
2023-11-11T08:19:28.776Z,12.46
2023-11-11T08:21:57.048Z,12.31
2023-11-11T08:24:26.596Z,12.25
2023-11-11T08:26:54.952Z,12.04
2023-11-11T08:29:23.137Z,11.88
2023-11-11T08:31:51.131Z,11.93
2023-11-11T08:34:19.176Z,12.20
2023-11-11T08:36:52.965Z,12.44
2023-11-11T08:39:22.353Z,12.55
2023-11-11T08:41:52.889Z,12.65
2023-11-11T08:44:21.192Z,12.49
2023-11-11T08:46:50.631Z,12.41
2023-11-11T08:49:18.894Z,12.39
2023-11-11T08:51:46.913Z,12.50
2023-11-11T08:54:15.527Z,12.43
2023-11-11T08:56:46.963Z,12.45
2023-11-11T08:59:16.632Z,12.60
2023-11-11T09:01:44.993Z,12.73
2023-11-11T09:04:13.052Z,12.79
2023-11-11T09:06:41.124Z,12.98
2023-11-11T09:09:09.152Z,12.88
2023-11-11T09:11:38.775Z,12.76
2023-11-11T09:14:07.134Z,12.46
2023-11-11T09:16:36.656Z,12.26
2023-11-11T09:19:05.277Z,12.09
2023-11-11T09:21:33.989Z,12.08
2023-11-11T09:24:02.046Z,12.09
2023-11-11T09:26:30.378Z,12.17
2023-11-11T09:28:59.626Z,12.17
2023-11-11T09:31:29.529Z,12.19
2023-11-11T09:34:02.729Z,12.23
2023-11-11T09:36:30.977Z,12.32
2023-11-11T09:38:58.971Z,12.34
2023-11-11T09:41:28.644Z,12.36
2023-11-11T09:43:56.555Z,12.45
2023-11-11T09:46:27.559Z,12.50
2023-11-11T09:48:56.539Z,12.44
2023-11-11T09:51:27.940Z,12.36
2023-11-11T09:53:56.453Z,12.40
2023-11-11T09:59:00.722Z,12.53
2023-11-11T10:01:29.451Z,12.53
2023-11-11T10:03:57.758Z,12.54
2023-11-11T10:06:27.250Z,12.60
2023-11-11T10:08:56.142Z,12.63
2023-11-11T10:11:24.387Z,12.70
2023-11-11T10:13:54.981Z,12.73
2023-11-11T10:16:26.269Z,12.77
2023-11-11T10:18:54.582Z,12.76
2023-11-11T10:21:23.041Z,12.76
2023-11-11T10:23:53.835Z,12.66
2023-11-11T10:26:22.742Z,12.64
2023-11-11T10:28:51.530Z,12.70
2023-11-11T10:31:23.742Z,12.78
2023-11-11T10:33:53.558Z,13.11
2023-11-11T10:36:24.525Z,13.33
2023-11-11T10:38:55.767Z,13.48
2023-11-11T10:41:27.038Z,13.55
2023-11-11T10:43:55.209Z,13.49
2023-11-11T10:46:23.428Z,13.42
2023-11-11T10:48:52.244Z,13.35
2023-11-11T10:51:21.017Z,13.38
2023-11-11T10:53:50.483Z,13.32
2023-11-11T10:56:20.864Z,13.21
2023-11-11T10:58:50.831Z,13.38
2023-11-11T11:01:19.091Z,13.58
2023-11-11T11:03:49.038Z,13.76
2023-11-11T11:06:26.700Z,14.01
2023-11-11T11:09:08.026Z,13.94
2023-11-11T11:11:59.126Z,14.20
2023-11-11T11:14:34.922Z,14.17
2023-11-11T11:17:02.965Z,14.10
2023-11-11T11:19:32.262Z,14.03
2023-11-11T11:22:00.326Z,13.97
2023-11-11T11:24:28.829Z,14.18
2023-11-11T11:26:58.567Z,14.34
2023-11-11T11:29:27.406Z,14.39
2023-11-11T11:32:09.300Z,14.38
2023-11-11T11:34:37.953Z,14.44
2023-11-11T11:37:07.781Z,14.53
2023-11-11T11:39:54.683Z,14.58
2023-11-11T11:42:28.747Z,14.60
2023-11-11T11:44:58.078Z,14.64
2023-11-11T11:47:31.336Z,14.63
2023-11-11T11:50:01.744Z,14.67
2023-11-11T11:52:29.724Z,14.72
2023-11-11T11:54:57.997Z,15.05
2023-11-11T11:57:28.861Z,15.19
2023-11-11T12:00:16.220Z,15.38
2023-11-11T12:02:44.857Z,15.83
2023-11-11T12:05:13.894Z,16.17
2023-11-11T12:07:42.489Z,16.41
2023-11-11T12:10:14.165Z,16.58
2023-11-11T12:12:46.135Z,16.46
2023-11-11T12:15:16.172Z,16.39
2023-11-11T12:17:44.705Z,16.38
2023-11-11T12:20:15.338Z,16.31
2023-11-11T12:22:44.921Z,16.42
2023-11-11T12:25:13.343Z,16.68
2023-11-11T12:27:43.552Z,16.93
2023-11-11T12:30:21.349Z,16.70
2023-11-11T12:33:04.952Z,16.39
2023-11-11T12:35:34.046Z,16.64
2023-11-11T12:38:17.070Z,16.58
2023-11-11T12:40:45.169Z,15.98
2023-11-11T12:43:14.251Z,15.39
2023-11-11T12:45:49.294Z,15.15
2023-11-11T12:48:18.804Z,14.77
2023-11-11T12:50:47.192Z,14.90
2023-11-11T12:53:16.583Z,14.76
2023-11-11T12:55:45.621Z,14.36
2023-11-11T12:58:30.463Z,15.14
2023-11-11T13:01:02.987Z,15.20
2023-11-11T13:03:32.236Z,15.42
2023-11-11T13:06:01.741Z,15.59
2023-11-11T13:08:30.820Z,15.67
2023-11-11T13:11:02.357Z,15.57
2023-11-11T13:13:33.002Z,15.82
2023-11-11T13:16:02.474Z,15.86
2023-11-11T13:18:30.415Z,15.79
2023-11-11T13:20:58.526Z,15.88
2023-11-11T13:23:31.095Z,15.72
2023-11-11T13:25:59.416Z,15.56
2023-11-11T13:28:27.919Z,15.50
2023-11-11T13:30:56.121Z,15.42
2023-11-11T13:33:26.576Z,15.27
2023-11-11T13:35:56.475Z,15.33
2023-11-11T13:38:24.728Z,15.27
2023-11-11T13:40:54.213Z,15.17
2023-11-11T13:43:23.725Z,15.03
2023-11-11T13:45:52.031Z,15.04
2023-11-11T13:48:20.119Z,15.59
2023-11-11T13:50:49.489Z,15.65
2023-11-11T13:53:17.695Z,15.97
2023-11-11T13:55:46.013Z,15.65
2023-11-11T13:58:14.741Z,16.26
2023-11-11T14:00:43.346Z,15.70
2023-11-11T14:03:12.495Z,15.40
2023-11-11T14:05:42.488Z,15.26
2023-11-11T14:08:12.571Z,15.23
2023-11-11T14:10:40.739Z,15.17
2023-11-11T14:13:09.261Z,15.10
2023-11-11T14:15:40.199Z,15.11
2023-11-11T14:18:13.010Z,14.99
2023-11-11T14:20:41.398Z,15.00
2023-11-11T14:23:09.363Z,14.82
2023-11-11T14:25:39.137Z,14.78
2023-11-11T14:28:08.515Z,14.89
2023-11-11T14:30:36.672Z,14.93
2023-11-11T14:33:06.527Z,14.85
2023-11-11T14:35:34.622Z,14.89
2023-11-11T14:38:03.928Z,14.92
2023-11-11T14:40:31.985Z,14.72
2023-11-11T14:43:01.300Z,14.59
2023-11-11T14:45:29.181Z,14.65
2023-11-11T14:47:58.274Z,14.65
2023-11-11T14:50:26.599Z,14.69
2023-11-11T14:52:54.537Z,14.66
2023-11-11T14:55:24.783Z,14.48
2023-11-11T14:57:55.813Z,14.43
2023-11-11T15:00:25.525Z,14.39
2023-11-11T15:02:54.343Z,14.25
2023-11-11T15:05:23.356Z,14.24
2023-11-11T15:07:51.909Z,14.27
2023-11-11T15:10:22.607Z,14.25
2023-11-11T15:12:52.238Z,14.25
2023-11-11T15:15:20.793Z,14.21
2023-11-11T15:17:50.174Z,14.20
2023-11-11T15:20:20.756Z,14.13
2023-11-11T15:22:55.952Z,14.07
2023-11-11T15:25:25.447Z,13.92
2023-11-11T15:27:53.456Z,14.19
2023-11-11T15:30:21.810Z,14.13
2023-11-11T15:32:52.275Z,14.13
2023-11-11T15:35:20.431Z,14.15
2023-11-11T15:37:48.583Z,14.18
2023-11-11T15:40:16.630Z,14.07
2023-11-11T15:42:44.979Z,13.93
2023-11-11T15:45:15.144Z,13.95
2023-11-11T15:47:43.849Z,13.91
2023-11-11T15:50:13.924Z,13.92
2023-11-11T15:52:41.936Z,13.88
2023-11-11T15:55:11.524Z,14.06
2023-11-11T15:57:40.124Z,14.06
2023-11-11T16:00:11.759Z,13.92
2023-11-11T16:02:40.950Z,13.99
2023-11-11T16:05:10.509Z,13.99
2023-11-11T16:07:40.489Z,13.98
2023-11-11T16:10:09.268Z,13.88
2023-11-11T16:12:37.176Z,13.82
2023-11-11T16:15:06.775Z,13.86
2023-11-11T16:17:35.056Z,13.82
2023-11-11T16:20:03.765Z,13.91
2023-11-11T16:22:31.736Z,13.96
2023-11-11T16:25:01.080Z,13.99
2023-11-11T16:27:29.167Z,13.76
2023-11-11T16:29:58.055Z,13.79
2023-11-11T16:32:26.934Z,13.98
2023-11-11T16:34:56.474Z,13.93
2023-11-11T16:37:25.014Z,13.91
2023-11-11T16:39:52.993Z,13.90
2023-11-11T16:42:22.266Z,13.89
2023-11-11T16:44:50.421Z,13.85
2023-11-11T16:47:18.633Z,13.84
2023-11-11T16:49:46.793Z,13.88
2023-11-11T16:52:14.865Z,13.79
2023-11-11T16:54:42.748Z,13.79
2023-11-11T16:57:10.924Z,13.77
2023-11-11T16:59:40.212Z,13.74
2023-11-11T17:02:08.331Z,13.72
2023-11-11T17:04:36.302Z,13.70
2023-11-11T17:07:11.666Z,13.71
2023-11-11T17:09:47.862Z,13.71
2023-11-11T17:12:15.908Z,13.78
2023-11-11T17:14:45.650Z,13.69
2023-11-11T17:17:13.664Z,13.73
2023-11-11T17:19:41.625Z,13.79
2023-11-11T17:22:09.536Z,13.76
2023-11-11T17:24:37.813Z,13.59
2023-11-11T17:27:06.358Z,13.68
2023-11-11T17:29:34.280Z,13.73
2023-11-11T17:32:05.289Z,13.69
2023-11-11T17:34:34.180Z,13.62
2023-11-11T17:37:02.211Z,13.49
2023-11-11T17:39:30.153Z,13.57
2023-11-11T17:41:58.142Z,13.53
2023-11-11T17:44:26.006Z,13.47
2023-11-11T17:46:54.279Z,13.28
2023-11-11T17:49:23.984Z,13.42
2023-11-11T17:51:52.508Z,13.41
2023-11-11T17:54:20.487Z,13.30
2023-11-11T17:56:48.388Z,13.32
2023-11-11T17:59:16.490Z,13.20
2023-11-11T18:01:44.765Z,13.23
2023-11-11T18:04:12.899Z,13.26
2023-11-11T18:06:43.375Z,13.47
2023-11-11T18:09:13.555Z,13.47
2023-11-11T18:11:42.230Z,13.42
2023-11-11T18:14:10.629Z,13.44
2023-11-11T18:16:38.822Z,13.26
2023-11-11T18:19:09.943Z,13.26
2023-11-11T18:21:38.267Z,13.24
2023-11-11T18:24:10.021Z,13.28
2023-11-11T18:26:38.302Z,13.11
2023-11-11T18:29:06.737Z,13.16
2023-11-11T18:31:34.848Z,13.09
2023-11-11T18:34:03.321Z,13.03
2023-11-11T18:36:34.184Z,13.00
2023-11-11T18:39:02.227Z,13.03
2023-11-11T18:41:31.479Z,13.07
2023-11-11T18:43:59.511Z,13.06
2023-11-11T18:46:27.370Z,13.05
2023-11-11T18:48:55.279Z,13.08
2023-11-11T18:51:25.981Z,13.09
2023-11-11T18:53:54.042Z,13.08
2023-11-11T18:56:22.021Z,12.98
2023-11-11T18:58:51.459Z,13.01
2023-11-11T19:01:19.419Z,13.02
2023-11-11T19:03:47.456Z,13.10
2023-11-11T19:06:15.569Z,13.20
2023-11-11T19:08:43.521Z,13.13
2023-11-11T19:11:11.534Z,13.03
2023-11-11T19:13:39.463Z,13.11
2023-11-11T19:16:09.123Z,13.11
2023-11-11T19:18:37.245Z,13.14
2023-11-11T19:21:06.758Z,13.12
2023-11-11T19:23:35.554Z,13.09
2023-11-11T19:26:05.833Z,13.03
2023-11-11T19:28:34.212Z,12.96
2023-11-11T19:31:02.093Z,12.95
2023-11-11T19:33:31.877Z,12.95
2023-11-11T19:35:59.794Z,13.01
2023-11-11T19:38:28.682Z,13.01
2023-11-11T19:40:56.609Z,12.87
2023-11-11T19:43:24.577Z,12.93
2023-11-11T19:45:52.625Z,12.98
2023-11-11T19:48:20.575Z,12.94
2023-11-11T19:50:49.938Z,12.99
2023-11-11T19:53:20.326Z,12.95
2023-11-11T19:55:48.236Z,13.03
2023-11-11T19:58:17.492Z,13.05
2023-11-11T20:00:45.478Z,12.98
2023-11-11T20:03:13.454Z,12.91
2023-11-11T20:05:41.549Z,12.93
2023-11-11T20:08:10.820Z,12.93
2023-11-11T20:10:38.796Z,13.04
2023-11-11T20:13:06.886Z,13.17
2023-11-11T20:15:34.810Z,13.11
2023-11-11T20:18:02.944Z,13.07
2023-11-11T20:20:30.829Z,12.96
2023-11-11T20:22:58.913Z,12.95
2023-11-11T20:25:30.635Z,12.95
2023-11-11T20:27:59.340Z,12.87
2023-11-11T20:30:27.220Z,13.00
2023-11-11T20:32:57.767Z,13.06
2023-11-11T20:35:26.992Z,13.10
2023-11-11T20:37:54.889Z,13.10
2023-11-11T20:40:23.146Z,12.98
2023-11-11T20:42:56.081Z,13.16
2023-11-11T20:45:24.452Z,13.16
2023-11-11T20:47:52.592Z,13.06
2023-11-11T20:50:23.387Z,13.11
2023-11-11T20:52:51.991Z,13.07
2023-11-11T20:55:21.033Z,13.08
2023-11-11T20:57:48.954Z,13.11
2023-11-11T21:00:19.263Z,13.10
2023-11-11T21:02:47.253Z,13.19
2023-11-11T21:05:18.029Z,13.26
2023-11-11T21:07:47.434Z,13.19
2023-11-11T21:10:17.415Z,13.23
2023-11-11T21:12:46.718Z,13.26
2023-11-11T21:15:14.700Z,13.18
2023-11-11T21:17:44.014Z,13.34
2023-11-11T21:20:13.378Z,13.33
2023-11-11T21:22:41.772Z,13.31
2023-11-11T21:25:11.606Z,13.30
2023-11-11T21:27:39.587Z,13.36
2023-11-11T21:30:09.781Z,13.29
2023-11-11T21:32:38.923Z,12.14
2023-11-11T21:35:09.015Z,11.56
2023-11-11T21:37:37.000Z,11.01
2023-11-11T21:40:06.093Z,10.17
2023-11-11T21:42:34.152Z,10.66
2023-11-11T21:45:02.019Z,10.29
2023-11-11T21:47:29.992Z,10.06
2023-11-11T21:49:57.991Z,9.95
2023-11-11T21:52:27.325Z,9.76
2023-11-11T21:54:55.183Z,9.65
2023-11-11T21:57:23.061Z,9.33
2023-11-11T21:59:51.039Z,9.10
2023-11-11T22:02:19.254Z,9.01
2023-11-11T22:04:48.185Z,8.91
2023-11-11T22:07:16.983Z,8.78
2023-11-11T22:09:46.352Z,8.70
2023-11-11T22:12:14.232Z,8.84
2023-11-11T22:14:43.311Z,8.75
2023-11-11T22:17:11.242Z,8.66
2023-11-11T22:19:39.186Z,8.66
2023-11-11T22:22:07.337Z,8.55
2023-11-11T22:24:35.395Z,8.44
2023-11-11T22:27:06.552Z,8.38
2023-11-11T22:29:34.434Z,8.30
2023-11-11T22:32:04.337Z,8.32
2023-11-11T22:34:33.451Z,8.29
2023-11-11T22:37:02.028Z,8.15
2023-11-11T22:39:29.990Z,8.18
2023-11-11T22:41:57.870Z,8.05
2023-11-11T22:44:27.503Z,8.00
2023-11-11T22:46:55.809Z,8.08
2023-11-11T22:49:26.104Z,8.23
2023-11-11T22:51:54.172Z,8.12
2023-11-11T22:54:22.335Z,7.94
2023-11-11T22:56:50.248Z,7.97
2023-11-11T22:59:18.250Z,7.91
2023-11-11T23:01:48.313Z,8.01
2023-11-11T23:04:16.337Z,7.87
2023-11-11T23:06:44.290Z,8.02
2023-11-11T23:09:12.496Z,8.01
2023-11-11T23:11:40.438Z,8.00
2023-11-11T23:14:11.046Z,7.99
2023-11-11T23:16:39.406Z,8.00
2023-11-11T23:19:09.500Z,8.02
2023-11-11T23:21:38.423Z,8.08
2023-11-11T23:24:07.336Z,8.08
2023-11-11T23:26:35.294Z,8.29
2023-11-11T23:29:03.241Z,8.15
2023-11-11T23:31:31.307Z,8.03
2023-11-11T23:33:59.364Z,8.10
2023-11-11T23:36:28.699Z,7.90
2023-11-11T23:38:56.691Z,7.88
2023-11-11T23:41:24.606Z,7.67
2023-11-11T23:43:52.686Z,7.79
2023-11-11T23:46:20.718Z,7.85
2023-11-11T23:48:49.406Z,7.76
2023-11-11T23:51:17.544Z,7.76
2023-11-11T23:53:46.782Z,7.60
2023-11-11T23:56:14.930Z,7.74
2023-11-11T23:58:42.906Z,7.44
